Time;durP1;ratioP1;P1;durP2;ratioP2;P2;SDS_P1;SDS_P2;PMS_P1;PMS_P2;Temp;Humidity;BMP_temperature;BMP_pressure;BME280_temperature;BME280_humidity;BME280_pressure;Samples;Min_cycle;Max_cycle;Signal;HPM_P1;HPM_P2
2021/12/01 00:02:00;;;;;;;8.73;2.45;;;;;;;9.56;97.37;99966.78;5036035;28;20056;-71
2021/12/01 00:04:25;;;;;;;8.10;1.95;;;;;;;9.56;97.44;99954.66;5053823;28;20025;-72
2021/12/01 00:06:51;;;;;;;8.32;2.08;;;;;;;9.56;97.39;99936.59;5035835;28;20029;-71
2021/12/01 00:09:16;;;;;;;6.03;1.60;;;;;;;9.59;97.30;99933.63;5053646;28;20025;-72
2021/12/01 00:11:41;;;;;;;3.97;1.42;;;;;;;9.54;97.48;99924.91;5053772;28;20107;-71
2021/12/01 00:14:07;;;;;;;3.20;1.40;;;;;;;9.53;98.05;99913.78;5053492;28;20388;-71
2021/12/01 00:16:32;;;;;;;6.32;1.10;;;;;;;9.51;97.88;99909.81;5053285;28;20467;-72
2021/12/01 00:18:58;;;;;;;2.88;1.15;;;;;;;9.51;97.81;99897.72;5035752;28;20115;-71
2021/12/01 00:21:24;;;;;;;3.53;1.48;;;;;;;9.49;97.77;99895.34;5053527;28;20025;-72
2021/12/01 00:23:49;;;;;;;3.30;2.35;;;;;;;9.46;97.61;99887.22;5053288;28;20114;-72
2021/12/01 00:26:14;;;;;;;5.93;3.50;;;;;;;9.42;97.82;99891.19;5053094;28;20027;-71
2021/12/01 00:28:39;;;;;;;5.13;3.45;;;;;;;9.39;97.78;99876.13;5053106;28;20025;-71
2021/12/01 00:31:05;;;;;;;6.90;4.90;;;;;;;9.48;97.38;99862.03;5053205;28;20051;-71
2021/12/01 00:33:31;;;;;;;7.95;4.53;;;;;;;9.46;97.17;99857.03;5035505;28;20023;-71
2021/12/01 00:35:57;;;;;;;10.98;5.57;;;;;;;9.47;97.48;99858.66;5053356;28;20024;-71
2021/12/01 00:38:24;;;;;;;11.15;6.20;;;;;;;9.46;97.06;99833.84;5053243;28;20082;-71
2021/12/01 00:40:50;;;;;;;10.48;6.78;;;;;;;9.57;96.90;99826.47;5053227;28;20059;-70
2021/12/01 00:43:17;;;;;;;10.43;6.80;;;;;;;9.62;96.43;99831.84;5035425;28;20029;-70
2021/12/01 00:45:50;;;;;;;10.85;6.93;;;;;;;9.62;96.46;99824.09;5053340;28;20055;-70
2021/12/01 00:48:17;;;;;;;11.80;6.03;;;;;;;9.60;96.31;99824.28;5053314;28;20033;-71
2021/12/01 00:50:44;;;;;;;9.93;5.90;;;;;;;9.70;95.82;99806.59;5053249;28;20028;-70
2021/12/01 00:53:10;;;;;;;13.70;5.82;;;;;;;9.74;95.74;99812.13;5053248;28;20426;-72
2021/12/01 00:55:35;;;;;;;10.27;5.18;;;;;;;9.74;95.89;99791.50;5053193;28;20032;-71
2021/12/01 00:58:01;;;;;;;12.88;5.35;;;;;;;9.80;94.88;99795.81;5053540;28;20464;-71
2021/12/01 01:00:28;;;;;;;10.73;5.03;;;;;;;9.83;95.06;99789.47;5053186;28;20028;-72
2021/12/01 01:02:56;;;;;;;16.10;4.70;;;;;;;9.83;95.15;99785.09;5053011;28;20021;-71
2021/12/01 01:05:21;;;;;;;10.18;5.20;;;;;;;9.83;95.58;99769.63;5035156;28;20017;-71
2021/12/01 01:07:47;;;;;;;10.07;5.35;;;;;;;9.79;95.21;99768.47;5054679;28;20029;-71
2021/12/01 01:18:25;;;;;;;8.60;6.30;;;;;;;9.72;96.08;99744.47;5057025;28;20048;-71
2021/12/01 01:20:50;;;;;;;9.00;5.95;;;;;;;9.69;96.37;99727.59;5056808;28;20024;-71
2021/12/01 01:23:16;;;;;;;10.38;5.80;;;;;;;9.70;96.38;99729.19;5038867;28;20471;-71
2021/12/01 01:25:41;;;;;;;9.88;5.45;;;;;;;9.69;96.57;99734.56;5056764;28;20073;-71
2021/12/01 01:28:06;;;;;;;5.93;4.18;;;;;;;9.70;96.63;99723.25;5038779;28;20029;-72
2021/12/01 01:30:32;;;;;;;6.10;3.90;;;;;;;9.59;97.06;99713.59;5056619;28;20024;-70
2021/12/01 01:32:59;;;;;;;6.25;4.20;;;;;;;9.66;96.74;99712.53;5056594;28;20024;-71
2021/12/01 01:35:25;;;;;;;5.47;3.78;;;;;;;9.67;96.80;99710.78;5056674;28;20476;-71
2021/12/01 01:37:50;;;;;;;7.13;4.28;;;;;;;9.68;97.22;99705.41;5056537;28;20048;-71
2021/12/01 01:40:16;;;;;;;5.93;4.25;;;;;;;9.68;97.08;99707.97;5056773;28;20025;-71
2021/12/01 01:42:42;;;;;;;5.93;4.00;;;;;;;9.68;97.04;99705.41;5056515;28;20021;-71
2021/12/01 01:45:08;;;;;;;7.85;3.40;;;;;;;9.73;96.15;99697.03;5056398;28;20024;-72
2021/12/01 01:47:35;;;;;;;8.10;3.10;;;;;;;9.70;95.82;99690.50;5039160;28;20036;-72
2021/12/01 01:50:15;;;;;;;6.88;2.97;;;;;;;9.67;95.99;99684.97;5056327;28;20021;-72
2021/12/01 01:52:40;;;;;;;5.53;2.55;;;;;;;9.68;95.40;99677.00;5057003;28;20036;-70
2021/12/01 01:55:06;;;;;;;5.40;2.40;;;;;;;9.75;94.39;99658.91;5056236;28;20096;-71
2021/12/01 01:57:31;;;;;;;5.38;2.10;;;;;;;9.77;94.35;99676.78;5038372;28;20021;-71
2021/12/01 01:59:56;;;;;;;8.18;2.00;;;;;;;9.75;93.65;99652.97;5038242;28;20032;-73
2021/12/01 02:02:22;;;;;;;9.95;1.92;;;;;;;9.73;94.35;99653.19;5056088;28;20021;-71
2021/12/01 02:04:47;;;;;;;7.78;1.98;;;;;;;9.79;93.56;99641.25;5038142;28;20378;-71
2021/12/01 02:07:12;;;;;;;12.85;2.22;;;;;;;9.81;93.67;99642.63;5055959;28;20025;-71
2021/12/01 02:09:38;;;;;;;6.85;1.85;;;;;;;9.78;93.44;99622.41;5055993;28;20022;-73
2021/12/01 02:12:04;;;;;;;7.20;1.73;;;;;;;9.78;93.42;99632.72;5038013;28;20025;-70
2021/12/01 02:17:51;;;;;;;7.10;1.90;;;;;;;9.85;92.70;99575.91;5053194;28;20103;-71
2021/12/01 02:20:19;;;;;;;5.20;2.03;;;;;;;9.82;93.10;99587.41;5036851;28;20476;-71
2021/12/01 02:22:45;;;;;;;3.58;1.85;;;;;;;9.77;93.34;99576.94;5038232;28;20049;-71
2021/12/01 02:25:10;;;;;;;3.67;1.60;;;;;;;9.74;93.36;99569.63;5056268;28;20021;-71
2021/12/01 02:27:36;;;;;;;4.53;1.60;;;;;;;9.73;92.54;99557.72;5037776;28;20021;-71
2021/12/01 02:30:01;;;;;;;4.72;1.85;;;;;;;9.77;93.31;99569.19;5037789;28;20036;-72
2021/12/01 02:32:27;;;;;;;7.20;1.73;;;;;;;9.74;93.17;99558.50;5055413;28;20025;-72
2021/12/01 02:34:52;;;;;;;5.57;1.70;;;;;;;9.67;93.40;99546.47;5037546;28;20021;-71
2021/12/01 02:37:19;;;;;;;5.47;1.80;;;;;;;9.60;93.73;99532.81;5037540;28;20017;-70
2021/12/01 02:39:49;;;;;;;4.05;1.60;;;;;;;9.55;94.25;99547.34;5037535;28;20067;-70
2021/12/01 02:42:19;;;;;;;3.40;1.52;;;;;;;9.52;94.22;99524.56;5055407;28;20025;-73
2021/12/01 02:44:45;;;;;;;2.15;1.55;;;;;;;9.43;94.78;99531.75;5037441;28;20468;-70
2021/12/01 02:47:10;;;;;;;2.38;1.58;;;;;;;9.36;95.41;99524.06;5037375;28;20452;-71
2021/12/01 02:49:35;;;;;;;1.83;1.35;;;;;;;9.36;94.91;99506.03;5037379;28;20166;-71
2021/12/01 02:52:01;;;;;;;1.55;1.30;;;;;;;9.31;94.52;99487.03;5037864;28;20025;-71
2021/12/01 02:54:29;;;;;;;2.25;1.40;;;;;;;9.35;94.58;99504.47;5037189;28;20029;-70
2021/12/01 02:56:55;;;;;;;2.65;1.77;;;;;;;9.44;94.48;99486.94;5037483;28;20099;-71
2021/12/01 02:59:21;;;;;;;4.65;1.90;;;;;;;9.44;94.01;99490.31;5055093;28;20056;-71
2021/12/01 03:01:46;;;;;;;2.60;1.80;;;;;;;9.30;94.37;99465.63;5037110;28;20024;-72
2021/12/01 03:04:13;;;;;;;3.22;1.85;;;;;;;9.40;94.43;99483.97;5055166;28;20032;-71
2021/12/01 03:06:40;;;;;;;4.43;2.17;;;;;;;9.42;93.63;99463.16;5055092;28;20060;-71
2021/12/01 03:09:07;;;;;;;3.22;2.10;;;;;;;9.44;93.72;99453.41;5054835;28;20040;-71
2021/12/01 03:11:33;;;;;;;4.25;2.28;;;;;;;9.33;94.12;99444.56;5036969;28;20028;-71
2021/12/01 03:13:58;;;;;;;6.63;2.40;;;;;;;9.32;93.93;99437.03;5054757;28;20020;-69
2021/12/01 03:16:24;;;;;;;3.13;2.00;;;;;;;9.35;93.74;99437.44;5036942;28;20029;-72
2021/12/01 03:18:49;;;;;;;3.47;2.00;;;;;;;9.32;93.78;99439.63;5054558;28;20049;-72
2021/12/01 03:21:15;;;;;;;3.95;2.00;;;;;;;9.24;94.40;99433.75;5054619;28;20048;-72
2021/12/01 03:23:41;;;;;;;3.65;1.98;;;;;;;9.21;94.66;99431.59;5054573;28;20086;-71
2021/12/01 03:26:07;;;;;;;2.92;1.70;;;;;;;9.21;94.42;99425.66;5054406;28;20040;-72
2021/12/01 03:28:35;;;;;;;2.38;1.70;;;;;;;9.16;94.75;99410.00;5054488;28;20075;-70
2021/12/01 03:31:00;;;;;;;1.95;1.75;;;;;;;9.17;94.11;99404.63;5054573;28;20036;-70
2021/12/01 03:33:26;;;;;;;2.90;1.60;;;;;;;9.15;94.67;99393.78;5036604;28;20383;-71
2021/12/01 03:35:52;;;;;;;1.83;1.42;;;;;;;9.18;94.90;99377.09;5054339;28;20036;-70
2021/12/01 03:38:20;;;;;;;2.28;1.42;;;;;;;9.05;94.42;99367.66;5036404;28;20021;-71
2021/12/01 03:40:47;;;;;;;1.67;1.42;;;;;;;9.17;94.14;99353.09;5054228;28;20036;-71
2021/12/01 03:43:12;;;;;;;1.70;1.50;;;;;;;9.14;94.39;99368.19;5054200;28;20029;-70
2021/12/01 03:45:38;;;;;;;1.35;1.25;;;;;;;9.13;94.19;99346.00;5036332;28;20017;-71
2021/12/01 03:48:04;;;;;;;1.70;1.52;;;;;;;9.12;94.27;99341.84;5036161;28;20029;-71
2021/12/01 03:50:29;;;;;;;2.00;1.58;;;;;;;9.10;93.79;99334.34;5054340;28;20159;-72
2021/12/01 03:52:55;;;;;;;3.95;1.98;;;;;;;8.98;95.02;99329.09;5036136;28;20036;-70
2021/12/01 03:55:20;;;;;;;3.15;1.88;;;;;;;9.00;95.16;99313.41;5036089;28;20021;-72
2021/12/01 03:57:46;;;;;;;4.85;2.28;;;;;;;8.97;94.10;99306.88;5036105;28;20464;-71
2021/12/01 04:00:14;;;;;;;3.20;2.28;;;;;;;8.98;94.49;99303.31;5053850;28;20143;-72
2021/12/01 04:02:40;;;;;;;4.00;2.70;;;;;;;8.93;94.93;99315.25;5054135;28;20046;-69
2021/12/01 04:05:07;;;;;;;7.13;3.10;;;;;;;8.89;95.00;99301.19;5035987;28;20063;-72
2021/12/01 04:07:33;;;;;;;7.72;3.72;;;;;;;8.86;94.96;99268.97;5036443;28;20056;-71
2021/12/01 04:09:58;;;;;;;5.20;3.40;;;;;;;8.79;95.12;99269.00;5053738;28;20029;-71
2021/12/01 04:12:24;;;;;;;8.48;3.75;;;;;;;8.89;94.36;99288.31;5053753;28;20090;-71
2021/12/01 04:14:50;;;;;;;7.05;3.92;;;;;;;8.91;94.29;99263.94;5035757;28;20470;-71
2021/12/01 04:17:15;;;;;;;8.70;4.15;;;;;;;8.86;94.22;99257.84;5053682;28;20132;-70
2021/12/01 04:19:40;;;;;;;7.15;4.05;;;;;;;8.79;94.41;99250.19;5035801;28;20028;-71
2021/12/01 04:22:06;;;;;;;8.98;4.60;;;;;;;8.82;93.87;99232.50;5035591;28;20025;-70
2021/12/01 04:24:31;;;;;;;8.25;4.07;;;;;;;8.86;94.27;99263.81;5053688;28;20032;-72
2021/12/01 04:26:57;;;;;;;6.90;4.10;;;;;;;8.81;93.76;99240.47;5035536;28;20424;-70
2021/12/01 04:29:23;;;;;;;6.35;4.13;;;;;;;8.76;94.17;99235.16;5053540;28;20082;-70
2021/12/01 04:31:49;;;;;;;8.50;4.10;;;;;;;8.75;94.60;99229.22;5053459;28;20021;-71
2021/12/01 04:34:14;;;;;;;5.80;3.58;;;;;;;8.65;94.80;99216.03;5053520;28;20589;-70
2021/12/01 04:36:42;;;;;;;7.00;4.00;;;;;;;8.63;95.02;99212.91;5053701;28;20375;-71
2021/12/01 04:39:13;;;;;;;5.82;4.10;;;;;;;8.65;94.91;99218.59;5035590;28;20052;-72
2021/12/01 04:41:41;;;;;;;5.40;3.47;;;;;;;8.66;94.79;99198.78;5053575;28;20079;-71
2021/12/01 04:44:14;;;;;;;5.65;4.05;;;;;;;8.62;95.30;99195.06;5053657;28;20070;-71
2021/12/01 04:46:46;;;;;;;;;;;;;;;8.58;95.61;99197.28;5053674;28;20025;-72
2021/12/01 04:49:15;;;;;;;4.60;2.90;;;;;;;8.54;95.74;99193.53;5035762;28;20260;-70
2021/12/01 04:51:42;;;;;;;4.85;3.50;;;;;;;8.51;95.84;99189.59;5053289;28;20468;-70
2021/12/01 04:54:08;;;;;;;6.10;3.35;;;;;;;8.43;96.42;99182.16;5035650;28;20025;-70
2021/12/01 04:56:33;;;;;;;4.85;3.08;;;;;;;8.47;96.20;99170.44;5053221;28;20027;-71
2021/12/01 04:58:59;;;;;;;5.65;3.97;;;;;;;8.42;96.64;99184.94;5053276;28;20021;-72
2021/12/01 05:01:24;;;;;;;6.10;3.65;;;;;;;8.43;96.53;99164.16;5035206;28;20064;-71
2021/12/01 05:03:49;;;;;;;6.00;3.67;;;;;;;8.47;95.92;99164.50;5035426;28;20025;-71
2021/12/01 05:06:16;;;;;;;5.38;3.70;;;;;;;8.39;96.95;99162.19;5053006;28;20070;-72
2021/12/01 05:08:42;;;;;;;4.85;3.83;;;;;;;8.39;96.33;99162.19;5035270;28;20021;-71
2021/12/01 05:11:08;;;;;;;4.60;3.65;;;;;;;8.40;96.29;99176.63;5053036;28;20032;-71
2021/12/01 05:13:33;;;;;;;5.25;3.60;;;;;;;8.34;96.51;99152.50;5053069;28;20029;-71
2021/12/01 05:15:59;;;;;;;5.60;4.07;;;;;;;8.39;96.06;99139.03;5052989;28;20028;-71
2021/12/01 05:18:24;;;;;;;5.82;4.28;;;;;;;8.36;96.83;99140.22;5052877;28;20403;-72
2021/12/01 05:20:49;;;;;;;4.50;3.55;;;;;;;8.34;97.07;99142.19;5052976;28;20025;-71
2021/12/01 05:23:15;;;;;;;6.38;4.30;;;;;;;8.34;96.50;99121.63;5053083;28;20113;-70
2021/12/01 05:25:42;;;;;;;6.47;4.32;;;;;;;8.42;96.94;99118.00;5052980;28;20036;-71
2021/12/01 05:28:07;;;;;;;6.13;4.50;;;;;;;8.35;96.86;99125.78;5052848;28;20111;-72
2021/12/01 05:30:33;;;;;;;6.80;4.10;;;;;;;8.39;97.25;99124.38;5052869;28;20100;-71
2021/12/01 05:33:04;;;;;;;5.50;3.95;;;;;;;8.34;97.03;99114.69;5052930;28;20361;-71
2021/12/01 05:35:30;;;;;;;5.53;4.40;;;;;;;8.35;96.80;99089.75;5053522;28;20057;-71
2021/12/01 05:37:55;;;;;;;5.97;3.78;;;;;;;8.39;96.42;99106.34;5035009;28;20357;-72
2021/12/01 05:40:20;;;;;;;5.97;4.07;;;;;;;8.35;96.68;99095.69;5053395;28;20039;-72
2021/12/01 05:42:45;;;;;;;5.95;4.25;;;;;;;8.35;96.52;99079.44;5052857;28;20442;-72
2021/12/01 05:45:11;;;;;;;5.93;4.32;;;;;;;8.39;96.11;99090.91;5034908;28;20037;-70
2021/12/01 05:47:36;;;;;;;6.60;4.30;;;;;;;8.45;96.05;99092.63;5054243;28;20021;-71
2021/12/01 05:50:02;;;;;;;5.88;3.92;;;;;;;8.35;96.52;99075.09;5052582;28;20028;-70
2021/12/01 05:52:28;;;;;;;5.45;4.20;;;;;;;8.32;96.81;99072.94;5052897;28;20032;-73
2021/12/01 05:54:53;;;;;;;5.93;4.32;;;;;;;8.34;96.67;99073.53;5054303;28;20472;-72
2021/12/01 05:57:18;;;;;;;7.35;4.18;;;;;;;8.35;96.91;99061.44;5038271;28;20476;-70
2021/12/01 05:59:44;;;;;;;7.60;4.28;;;;;;;8.32;96.92;99061.88;5056454;28;20036;-70
2021/12/01 06:02:09;;;;;;;9.13;4.80;;;;;;;8.40;96.71;99050.50;5056579;28;20052;-70
2021/12/01 06:04:34;;;;;;;6.35;4.50;;;;;;;8.34;97.45;99059.84;5038248;28;20507;-70
2021/12/01 06:06:59;;;;;;;7.05;4.28;;;;;;;8.32;97.20;99046.41;5055985;28;20033;-72
2021/12/01 06:09:25;;;;;;;7.35;4.20;;;;;;;8.34;96.95;99054.69;5056030;28;20391;-70
2021/12/01 06:11:52;;;;;;;5.72;4.30;;;;;;;8.33;96.54;99047.97;5055946;28;20078;-71
2021/12/01 06:14:17;;;;;;;6.47;3.97;;;;;;;8.27;97.12;99030.81;5056157;28;20021;-71
2021/12/01 06:16:43;;;;;;;7.03;3.90;;;;;;;8.34;96.64;99037.50;5039646;28;20494;-73
2021/12/01 06:19:09;;;;;;;5.43;3.58;;;;;;;8.48;95.92;99043.28;5039728;28;20031;-71
2021/12/01 06:21:34;;;;;;;6.55;4.40;;;;;;;8.47;95.52;99038.38;5055807;28;20094;-70
2021/12/01 06:23:59;;;;;;;5.60;3.78;;;;;;;8.48;95.40;99007.25;5055712;28;20029;-69
2021/12/01 06:26:24;;;;;;;4.53;3.10;;;;;;;8.52;95.31;99016.13;5056194;28;20036;-70
2021/12/01 06:28:51;;;;;;;5.00;3.17;;;;;;;8.51;95.39;99013.75;5055739;28;20376;-70
2021/12/01 06:31:16;;;;;;;6.13;3.22;;;;;;;8.49;95.18;98985.66;5055999;28;20056;-71
2021/12/01 06:33:41;;;;;;;4.63;3.40;;;;;;;8.54;95.46;98996.06;5037599;28;20128;-71
2021/12/01 06:36:07;;;;;;;6.95;3.50;;;;;;;8.47;95.00;99008.25;5055586;28;20043;-72
2021/12/01 06:38:32;;;;;;;5.88;3.33;;;;;;;8.50;95.30;99000.09;5056042;28;20031;-70
2021/12/01 06:40:58;;;;;;;5.03;3.10;;;;;;;8.53;94.98;99002.25;5055453;28;20052;-71
2021/12/01 06:43:23;;;;;;;5.82;3.30;;;;;;;8.51;94.99;98996.50;5037433;28;20379;-71
2021/12/01 06:45:49;;;;;;;6.53;3.40;;;;;;;8.52;95.54;98990.38;5055219;28;20047;-71
2021/12/01 06:48:14;;;;;;;5.28;3.20;;;;;;;8.57;94.47;98989.72;5037275;28;20127;-71
2021/12/01 06:50:39;;;;;;;5.18;3.00;;;;;;;8.62;94.42;99004.53;5055098;28;20368;-72
2021/12/01 06:53:04;;;;;;;4.80;3.10;;;;;;;8.44;95.35;98972.66;5056438;28;20025;-70
2021/12/01 06:55:30;;;;;;;4.80;3.30;;;;;;;8.44;95.42;98962.34;5057713;28;20091;-72
2021/12/01 06:57:55;;;;;;;5.25;2.85;;;;;;;8.55;95.04;98995.09;5039093;28;20024;-70
2021/12/01 07:00:21;;;;;;;4.05;2.90;;;;;;;8.52;94.71;98980.09;5054936;28;20029;-71
2021/12/01 07:02:47;;;;;;;4.63;3.10;;;;;;;8.55;95.17;98977.06;5055049;28;20053;-71
2021/12/01 07:05:12;;;;;;;3.65;2.47;;;;;;;8.53;94.93;98971.34;5054350;28;20025;-72
2021/12/01 07:07:38;;;;;;;4.60;2.80;;;;;;;8.50;95.41;98950.41;5054586;28;20526;-69
2021/12/01 07:10:07;;;;;;;4.60;2.92;;;;;;;8.56;95.35;98954.69;5036755;28;20078;-69
2021/12/01 07:12:32;;;;;;;3.80;2.60;;;;;;;8.56;95.53;98958.03;5036526;28;20028;-70
2021/12/01 07:14:57;;;;;;;3.97;2.58;;;;;;;8.55;95.47;98964.19;5036649;28;20029;-70
2021/12/01 07:17:23;;;;;;;5.07;2.95;;;;;;;8.60;95.82;98942.94;5054770;28;20037;-70
2021/12/01 07:19:48;;;;;;;4.15;3.00;;;;;;;8.66;95.42;98946.41;5055098;28;20028;-71
2021/12/01 07:22:14;;;;;;;3.95;2.67;;;;;;;8.67;95.23;98937.72;5054384;28;20054;-71
2021/12/01 07:24:40;;;;;;;3.67;2.80;;;;;;;8.67;94.65;98935.13;5054246;28;20029;-71
2021/12/01 07:27:06;;;;;;;4.30;3.08;;;;;;;8.67;94.50;98948.00;5036223;28;20034;-71
2021/12/01 07:29:31;;;;;;;4.72;3.30;;;;;;;8.70;94.64;98930.31;5054208;28;20037;-71
2021/12/01 07:31:57;;;;;;;5.15;3.28;;;;;;;8.69;94.88;98923.63;5054143;28;20024;-72
2021/12/01 07:34:22;;;;;;;5.65;3.42;;;;;;;8.76;94.60;98926.88;5054181;28;20025;-72
2021/12/01 07:36:48;;;;;;;4.85;3.05;;;;;;;8.75;94.10;98920.16;5054278;28;20384;-71
2021/12/01 07:39:13;;;;;;;4.95;3.20;;;;;;;8.77;94.56;98923.28;5054010;28;20021;-71
2021/12/01 07:41:38;;;;;;;3.60;2.80;;;;;;;8.79;94.52;98921.28;5036170;28;20025;-71
2021/12/01 07:44:04;;;;;;;6.60;2.58;;;;;;;8.85;93.96;98905.94;5054427;28;20055;-71
2021/12/01 07:46:29;;;;;;;8.80;3.30;;;;;;;8.88;93.47;98893.41;5053952;28;20052;-70
2021/12/01 07:48:55;;;;;;;6.55;2.50;;;;;;;8.84;93.00;98886.38;5053980;28;20504;-72
2021/12/01 07:51:20;;;;;;;3.67;2.50;;;;;;;8.89;93.62;98889.03;5053841;28;20025;-70
2021/12/01 07:53:45;;;;;;;3.90;2.50;;;;;;;8.89;93.80;98892.41;5053930;28;20028;-71
2021/12/01 07:56:12;;;;;;;4.70;2.60;;;;;;;8.88;93.69;98887.47;5053819;28;20098;-70
2021/12/01 07:58:37;;;;;;;4.93;2.53;;;;;;;8.92;94.13;98891.97;5054104;28;20494;-71
2021/12/01 08:01:03;;;;;;;7.95;2.78;;;;;;;8.95;93.84;98926.81;5053810;28;20029;-70
2021/12/01 08:03:28;;;;;;;5.85;2.47;;;;;;;8.69;94.26;98884.19;5054312;28;20060;-71
2021/12/01 08:05:53;;;;;;;8.27;3.35;;;;;;;8.89;94.74;98902.72;5053744;28;20020;-72
2021/12/01 08:08:19;;;;;;;10.75;3.03;;;;;;;8.88;95.66;98946.72;5053924;28;20021;-70
2021/12/01 08:10:45;;;;;;;10.88;2.58;;;;;;;8.72;95.04;98973.91;5035856;28;20152;-70
2021/12/01 08:13:10;;;;;;;10.48;2.00;;;;;;;8.62;93.87;98942.72;5035691;28;20025;-72
2021/12/01 08:15:36;;;;;;;10.88;2.15;;;;;;;8.54;91.27;98924.00;5053606;28;20498;-72
2021/12/01 08:18:01;;;;;;;11.50;2.15;;;;;;;8.63;90.56;98926.25;5052597;28;20044;-72
2021/12/01 08:20:26;;;;;;;11.07;1.90;;;;;;;8.61;90.16;98925.72;5035713;28;20108;-72
2021/12/01 08:22:52;;;;;;;13.68;2.00;;;;;;;8.52;90.64;98920.09;5053749;28;20032;-71
2021/12/01 08:25:18;;;;;;;14.73;2.00;;;;;;;8.45;89.37;98929.66;5035879;28;20032;-70
2021/12/01 08:27:43;;;;;;;8.25;1.58;;;;;;;8.45;89.41;98937.41;5053414;28;20464;-70
2021/12/01 08:30:09;;;;;;;11.68;2.00;;;;;;;8.41;89.17;98920.81;5053459;28;20037;-70
2021/12/01 08:32:35;;;;;;;12.48;1.92;;;;;;;8.66;90.19;98936.13;5053259;28;20029;-70
2021/12/01 08:35:00;;;;;;;11.30;2.28;;;;;;;8.69;89.32;98944.22;5053432;28;20105;-71
2021/12/01 08:37:26;;;;;;;17.05;2.08;;;;;;;8.51;88.64;98942.44;5054307;28;20589;-73
2021/12/01 08:39:52;;;;;;;9.95;1.58;;;;;;;8.56;88.47;98954.69;5055012;28;20059;-70
2021/12/01 08:42:20;;;;;;;11.60;2.08;;;;;;;8.55;88.24;98964.19;5054011;28;20056;-71
2021/12/01 08:44:46;;;;;;;13.90;1.77;;;;;;;8.49;89.11;98946.28;5053242;28;20472;-71
2021/12/01 08:47:16;;;;;;;6.50;1.23;;;;;;;8.66;87.04;98964.44;5035291;28;20027;-71
2021/12/01 08:49:43;;;;;;;11.82;1.70;;;;;;;8.79;87.77;98966.84;5035787;28;20124;-70
2021/12/01 08:52:09;;;;;;;7.60;1.63;;;;;;;8.71;87.57;98973.09;5053243;28;20037;-70
2021/12/01 08:54:35;;;;;;;10.05;1.38;;;;;;;8.81;87.79;98965.63;5053364;28;20092;-71
2021/12/01 08:57:01;;;;;;;8.18;1.55;;;;;;;8.81;87.63;98975.16;5035345;28;20464;-71
2021/12/01 08:59:26;;;;;;;8.45;1.58;;;;;;;8.76;87.60;98957.78;5035207;28;20017;-71
2021/12/01 09:01:52;;;;;;;6.93;1.35;;;;;;;8.65;88.01;98960.31;5035365;28;20403;-70
2021/12/01 09:04:18;;;;;;;11.90;1.60;;;;;;;8.70;88.65;98955.28;5035236;28;20067;-70
2021/12/01 09:06:44;;;;;;;7.03;1.40;;;;;;;8.76;87.45;98975.81;5052935;28;20021;-71
2021/12/01 09:09:09;;;;;;;8.55;1.48;;;;;;;8.73;86.58;98975.47;5053267;28;20080;-71
2021/12/01 09:11:34;;;;;;;8.88;1.65;;;;;;;8.67;88.22;98978.91;5035362;28;20131;-72
2021/12/01 09:14:00;;;;;;;8.43;1.40;;;;;;;8.62;89.02;98983.91;5035363;28;20162;-73
2021/12/01 09:16:25;;;;;;;11.95;1.63;;;;;;;8.49;89.46;98972.78;5053000;28;20021;-74
2021/12/01 09:18:51;;;;;;;7.20;1.40;;;;;;;8.49;89.66;98984.88;5035017;28;20052;-72
2021/12/01 09:21:18;;;;;;;9.13;1.40;;;;;;;8.49;89.63;98998.53;5053033;28;20021;-70
2021/12/01 09:23:44;;;;;;;10.07;2.13;;;;;;;8.45;90.72;98999.97;5052902;28;20046;-70
2021/12/01 09:26:10;;;;;;;11.73;1.75;;;;;;;8.42;90.10;99008.13;5052867;28;20033;-71
2021/12/01 09:28:35;;;;;;;7.38;1.30;;;;;;;8.38;91.11;99024.19;5054144;28;20103;-72
2021/12/01 09:31:00;;;;;;;7.35;1.42;;;;;;;8.25;92.10;99019.94;5056650;28;20033;-72
2021/12/01 09:33:28;;;;;;;6.70;1.40;;;;;;;8.19;92.91;99002.81;5039115;28;20028;-73
2021/12/01 09:35:53;;;;;;;10.15;1.83;;;;;;;8.04;93.92;99003.94;5059574;28;20025;-78
2021/12/01 09:38:19;;;;;;;8.68;1.17;;;;;;;8.13;93.64;99025.81;5039411;28;20021;-73
2021/12/01 09:40:49;;;;;;;8.20;1.33;;;;;;;8.03;93.99;99024.75;5038615;28;20078;-73
2021/12/01 09:43:16;;;;;;;5.80;1.20;;;;;;;8.25;93.78;99018.16;5038583;28;20044;-73
2021/12/01 09:45:41;;;;;;;12.60;1.52;;;;;;;8.24;92.81;99015.81;5056419;28;20021;-73
2021/12/01 09:48:07;;;;;;;8.75;1.45;;;;;;;8.22;92.16;99012.66;5038592;28;20032;-74
2021/12/01 09:50:33;;;;;;;5.32;1.23;;;;;;;8.34;91.07;99018.66;5038524;28;20052;-73
2021/12/01 09:52:58;;;;;;;7.65;1.60;;;;;;;8.52;89.73;99023.84;5038726;28;20098;-72
2021/12/01 09:55:23;;;;;;;7.22;1.48;;;;;;;8.51;88.69;99014.53;5056784;28;20032;-73
2021/12/01 09:57:59;;;;;;;7.40;1.23;;;;;;;8.26;88.51;98985.53;5056916;28;20021;-70
2021/12/01 10:00:24;;;;;;;9.45;2.17;;;;;;;8.29;90.85;99019.31;5056964;28;20384;-75
2021/12/01 10:02:53;;;;;;;7.75;1.40;;;;;;;8.35;88.99;99022.81;5056670;28;20025;-72
2021/12/01 10:05:46;;;;;;;9.10;1.38;;;;;;;8.41;89.50;99011.69;5057115;28;20115;-70
2021/12/01 10:08:35;;;;;;;7.55;1.50;;;;;;;8.38;88.51;99016.47;5056717;28;20029;-71
2021/12/01 10:11:06;;;;;;;8.27;1.25;;;;;;;8.53;88.76;99019.47;5026796;28;20033;-71
2021/12/01 10:13:37;;;;;;;7.30;1.45;;;;;;;8.77;87.89;99013.41;5038253;28;20433;-71
2021/12/01 10:16:05;;;;;;;13.32;1.90;;;;;;;8.61;88.15;99013.25;5056766;28;20419;-72
2021/12/01 10:18:39;;;;;;;8.63;1.38;;;;;;;8.69;87.56;99006.03;5056037;28;20037;-71
2021/12/01 10:21:11;;;;;;;7.97;1.50;;;;;;;8.85;87.61;99012.34;5056213;28;20028;-72
2021/12/01 10:23:40;;;;;;;15.20;1.60;;;;;;;8.97;86.92;99005.44;5040617;28;20036;-73
2021/12/01 10:26:10;;;;;;;7.85;1.70;;;;;;;8.91;86.23;99019.19;5056360;28;20234;-71
2021/12/01 10:28:41;;;;;;;12.48;1.67;;;;;;;8.90;86.07;99015.06;5057381;28;20036;-72
2021/12/01 10:31:06;;;;;;;9.63;1.75;;;;;;;8.75;87.00;99002.56;5058548;28;20077;-71
2021/12/01 10:33:32;;;;;;;7.28;1.48;;;;;;;8.77;87.32;99010.06;5058139;28;20056;-71
2021/12/01 10:36:00;;;;;;;17.35;1.83;;;;;;;8.80;87.41;99002.72;5056397;28;20031;-73
2021/12/01 10:38:30;;;;;;;9.27;1.80;;;;;;;8.75;87.30;99018.03;5056181;28;20453;-72
2021/12/01 10:41:03;;;;;;;11.45;1.70;;;;;;;8.78;86.65;99009.84;5055654;28;20115;-71
2021/12/01 10:43:41;;;;;;;20.42;1.83;;;;;;;8.63;87.42;99012.03;5045090;28;20020;-72
2021/12/01 10:46:09;;;;;;;15.63;1.80;;;;;;;8.67;87.36;99008.03;5068980;28;20063;-73
2021/12/01 10:48:35;;;;;;;11.35;1.70;;;;;;;8.75;86.91;99004.38;5070030;28;20052;-72
2021/12/01 10:51:00;;;;;;;12.52;1.80;;;;;;;8.89;86.36;99000.63;5069311;28;20029;-75
2021/12/01 10:53:26;;;;;;;9.80;1.75;;;;;;;8.86;86.38;98995.09;5071219;28;20119;-71
2021/12/01 10:56:02;;;;;;;9.95;1.55;;;;;;;8.82;86.85;98998.09;5053724;28;20036;-74
2021/12/01 10:58:33;;;;;;;10.32;1.88;;;;;;;9.00;87.46;98999.84;5072386;28;20032;-78
2021/12/01 11:01:00;;;;;;;11.60;1.52;;;;;;;8.75;85.71;98989.69;5071897;28;20399;-76
2021/12/01 11:03:30;;;;;;;7.28;1.48;;;;;;;8.79;86.58;99005.50;5063216;28;20060;-71
2021/12/01 11:06:09;;;;;;;15.55;1.98;;;;;;;8.81;86.97;99003.50;5059670;28;20029;-73
2021/12/01 11:08:37;;;;;;;12.50;1.83;;;;;;;8.66;87.03;99003.88;5058868;28;20061;-71
2021/12/01 11:11:11;;;;;;;15.30;1.80;;;;;;;8.68;87.02;99013.94;5060438;28;20028;-71
2021/12/01 11:13:40;;;;;;;10.10;1.60;;;;;;;8.70;86.54;99004.22;5058546;28;20029;-71
2021/12/01 11:16:08;;;;;;;11.13;1.80;;;;;;;8.64;87.27;99007.66;5039763;28;20420;-72
2021/12/01 11:18:35;;;;;;;12.35;1.75;;;;;;;8.70;86.23;99009.38;5039215;28;20060;-72
2021/12/01 11:21:12;;;;;;;19.67;3.38;;;;;;;8.64;86.18;99005.09;5039918;28;20448;-72
2021/12/01 11:23:49;;;;;;;15.48;2.00;;;;;;;8.69;86.36;99008.59;5038719;28;20053;-72
2021/12/01 11:26:21;;;;;;;12.52;1.83;;;;;;;8.67;87.39;99022.69;5056327;28;20025;-72
2021/12/01 11:28:57;;;;;;;12.05;3.35;;;;;;;8.52;86.23;99010.19;5056001;28;20032;-72
2021/12/01 11:31:23;;;;;;;14.95;1.83;;;;;;;8.65;85.97;99004.88;5037197;28;20025;-72
2021/12/01 11:33:55;;;;;;;18.50;2.30;;;;;;;8.70;86.66;99005.00;5056600;28;20116;-71
2021/12/01 11:36:25;;;;;;;13.23;2.00;;;;;;;8.68;84.70;99004.44;5054713;28;20468;-71
2021/12/01 11:38:53;;;;;;;13.57;1.70;;;;;;;8.73;85.60;99006.38;5055346;28;20017;-70
2021/12/01 11:41:19;;;;;;;15.48;1.85;;;;;;;8.71;84.51;98998.84;5054797;28;20518;-71
2021/12/01 11:43:45;;;;;;;7.82;2.20;;;;;;;8.68;85.39;98994.13;5036501;28;20031;-71
2021/12/01 11:46:11;;;;;;;9.25;2.03;;;;;;;8.73;84.21;98993.50;5054187;28;20384;-71
2021/12/01 11:48:58;;;;;;;15.07;1.98;;;;;;;8.78;85.13;98991.06;5054024;28;20029;-72